Time;durP1;ratioP1;P1;durP2;ratioP2;P2;SDS_P1;SDS_P2;PMS_P1;PMS_P2;Temp;Humidity;BMP_temperature;BMP_pressure;BME280_temperature;BME280_humidity;BME280_pressure;Samples;Min_cycle;Max_cycle;Signal;HPM_P1;HPM_P2
2023/07/22 00:01:55;;;;;;;;;;;;;;;21.58;56.12;100611.53;4966921;28;4364;-68
2023/07/22 00:04:22;;;;;;;;;;;;;;;21.58;56.16;100602.91;4964370;28;4271;-67
2023/07/22 00:06:48;;;;;;;;;;;;;;;21.58;55.82;100607.91;4970090;28;4213;-68
2023/07/22 00:09:14;;;;;;;;;;;;;;;21.57;55.90;100607.16;4967498;28;4004;-68
2023/07/22 00:11:41;;;;;;;;;;;;;;;21.57;55.81;100610.06;4968681;28;4135;-68
2023/07/22 00:14:08;;;;;;;;;;;;;;;21.57;56.00;100612.94;4964693;28;4005;-68
2023/07/22 00:16:35;;;;;;;;;;;;;;;21.57;55.96;100612.94;4969871;28;4060;-68
2023/07/22 00:19:02;;;;;;;;;;;;;;;21.57;55.95;100615.09;4969988;28;4244;-68
2023/07/22 00:21:29;;;;;;;;;;;;;;;21.57;56.16;100615.09;4966321;28;4151;-68
2023/07/22 00:23:55;;;;;;;;;;;;;;;21.56;56.02;100617.22;4974258;28;4156;-68
2023/07/22 00:26:21;;;;;;;;;;;;;;;21.56;56.08;100617.22;4972704;28;4094;-66
2023/07/22 00:28:48;;;;;;;;;;;;;;;21.56;55.97;100616.50;4970763;28;4207;-68
2023/07/22 00:31:14;;;;;;;;;;;;;;;21.56;55.95;100620.13;4966823;28;4310;-68
2023/07/22 00:33:41;;;;;;;;;;;;;;;21.57;56.22;100615.81;4967440;28;4196;-68
2023/07/22 00:36:07;;;;;;;;;;;;;;;21.56;56.01;100614.34;4967212;28;4476;-68
2023/07/22 00:38:34;;;;;;;;;;;;;;;21.55;55.93;100609.97;4976090;28;4330;-68
2023/07/22 00:41:01;;;;;;;;;;;;;;;21.54;56.00;100608.50;4971996;28;4284;-68
2023/07/22 00:43:31;;;;;;;;;;;;;;;21.56;56.04;100616.50;4965537;28;4064;-68
2023/07/22 00:45:58;;;;;;;;;;;;;;;21.56;56.21;100605.72;4973173;28;3989;-68
2023/07/22 00:48:24;;;;;;;;;;;;;;;21.55;56.03;100607.09;4968252;28;4213;-68
2023/07/22 00:50:50;;;;;;;;;;;;;;;21.54;56.38;100622.91;4979984;28;4237;-68
2023/07/22 00:53:18;;;;;;;;;;;;;;;21.55;56.15;100627.25;4991251;28;4193;-69
2023/07/22 00:55:44;;;;;;;;;;;;;;;21.55;56.26;100621.50;4976106;28;4200;-68
2023/07/22 00:58:11;;;;;;;;;;;;;;;21.54;56.08;100617.88;4978629;28;4236;-68
2023/07/22 01:00:37;;;;;;;;;;;;;;;21.54;56.12;100622.91;4965428;28;4366;-68
2023/07/22 01:03:03;;;;;;;;;;;;;;;21.54;56.28;100623.66;4983304;28;4186;-68
2023/07/22 01:05:30;;;;;;;;;;;;;;;21.54;56.11;100620.75;4966516;28;4351;-68
2023/07/22 01:07:56;;;;;;;;;;;;;;;21.54;56.29;100626.53;4968567;28;4171;-68
2023/07/22 01:10:23;;;;;;;;;;;;;;;21.54;55.94;100625.78;4969536;28;5175;-68
2023/07/22 01:12:49;;;;;;;;;;;;;;;21.55;56.10;100627.25;4970917;28;4131;-68
2023/07/22 01:15:16;;;;;;;;;;;;;;;21.53;56.14;100630.81;4967175;28;4371;-68
2023/07/22 01:17:42;;;;;;;;;;;;;;;21.53;56.36;100635.81;4970634;28;4151;-68
2023/07/22 01:20:09;;;;;;;;;;;;;;;21.53;56.32;100636.59;4975277;28;4021;-68
2023/07/22 01:22:36;;;;;;;;;;;;;;;21.52;56.19;100634.34;4970815;28;4176;-68
2023/07/22 01:25:03;;;;;;;;;;;;;;;21.52;56.09;100628.59;4970863;28;4243;-68
2023/07/22 01:27:29;;;;;;;;;;;;;;;21.52;56.23;100614.94;4973060;28;4009;-68
2023/07/22 01:29:55;;;;;;;;;;;;;;;21.51;56.27;100619.22;4966008;28;4056;-68
2023/07/22 01:32:22;;;;;;;;;;;;;;;21.52;56.28;100617.06;4963483;28;4135;-68
2023/07/22 01:34:48;;;;;;;;;;;;;;;21.53;56.23;100619.31;5002956;28;4242;-68
2023/07/22 01:37:15;;;;;;;;;;;;;;;21.52;56.17;100619.94;4969472;28;4196;-68
2023/07/22 01:39:41;;;;;;;;;;;;;;;21.52;56.40;100634.34;4964860;28;4503;-68
2023/07/22 01:42:08;;;;;;;;;;;;;;;21.52;56.44;100643.72;4973433;28;6001;-68
2023/07/22 01:44:34;;;;;;;;;;;;;;;21.50;56.24;100637.16;4964590;28;4153;-68
2023/07/22 01:47:02;;;;;;;;;;;;;;;21.50;56.40;100637.88;4974979;28;4075;-68
2023/07/22 01:49:28;;;;;;;;;;;;;;;21.51;56.17;100638.66;4966547;28;4177;-68
2023/07/22 01:51:55;;;;;;;;;;;;;;;21.51;56.19;100644.41;4974854;28;4109;-68
2023/07/22 01:54:22;;;;;;;;;;;;;;;21.52;56.34;100643.00;4968560;28;4171;-67
2023/07/22 01:56:48;;;;;;;;;;;;;;;21.51;56.31;100650.91;4969065;28;4877;-68
2023/07/22 01:59:15;;;;;;;;;;;;;;;21.51;56.13;100653.78;4965245;28;4250;-68
2023/07/22 02:01:41;;;;;;;;;;;;;;;21.49;56.34;100652.97;4977825;28;4143;-68
2023/07/22 02:04:08;;;;;;;;;;;;;;;21.48;56.32;100652.22;4975569;28;4191;-68
2023/07/22 02:06:35;;;;;;;;;;;;;;;21.49;56.05;100664.50;4968743;28;4148;-68
2023/07/22 02:09:08;;;;;;;;;;;;;;;21.49;56.21;100664.50;4965676;28;4641;-68
2023/07/22 02:11:35;;;;;;;;;;;;;;;21.49;56.32;100662.34;4966778;28;4195;-68
2023/07/22 02:14:01;;;;;;;;;;;;;;;21.48;56.31;100665.88;4965430;28;4138;-68
2023/07/22 02:16:27;;;;;;;;;;;;;;;21.48;56.04;100668.75;4965237;28;4065;-67
2023/07/22 02:18:54;;;;;;;;;;;;;;;21.47;56.09;100673.78;4979763;28;4371;-68
2023/07/22 02:21:21;;;;;;;;;;;;;;;21.45;56.18;100665.06;4964881;28;4044;-68
2023/07/22 02:23:47;;;;;;;;;;;;;;;21.44;56.09;100680.88;4996532;28;4348;-68
2023/07/22 02:26:15;;;;;;;;;;;;;;;21.47;56.28;100684.59;4967250;28;4167;-68
2023/07/22 02:28:42;;;;;;;;;;;;;;;21.46;56.16;100683.09;4965037;28;5146;-68
2023/07/22 02:31:08;;;;;;;;;;;;;;;21.43;56.04;100675.78;4999389;28;4060;-68
2023/07/22 02:33:35;;;;;;;;;;;;;;;21.44;56.00;100686.66;4963234;28;4069;-68
2023/07/22 02:36:01;;;;;;;;;;;;;;;21.43;56.13;100685.16;5000948;28;4173;-68
2023/07/22 02:38:27;;;;;;;;;;;;;;;21.41;56.10;100690.09;4967950;28;4132;-67
2023/07/22 02:40:54;;;;;;;;;;;;;;;21.41;56.32;100695.84;4969639;28;4100;-69
2023/07/22 02:43:25;;;;;;;;;;;;;;;21.43;56.07;100690.19;4966885;28;4132;-68
2023/07/22 02:45:53;;;;;;;;;;;;;;;21.40;56.29;100697.25;4999751;28;4877;-68
2023/07/22 02:48:19;;;;;;;;;;;;;;;21.38;56.16;100702.91;4967450;28;4206;-67
2023/07/22 02:50:45;;;;;;;;;;;;;;;21.40;56.10;100697.25;4963212;28;4123;-68
2023/07/22 02:53:12;;;;;;;;;;;;;;;21.39;56.04;100701.50;4966326;28;3961;-67
2023/07/22 02:55:38;;;;;;;;;;;;;;;21.41;56.19;100704.50;4999509;28;4110;-67
2023/07/22 02:58:05;;;;;;;;;;;;;;;21.40;55.98;100712.41;4969361;28;4182;-68
2023/07/22 03:00:32;;;;;;;;;;;;;;;21.43;56.00;100707.47;4998192;28;4259;-67
2023/07/22 03:03:01;;;;;;;;;;;;;;;21.41;56.09;100711.00;4964274;28;3972;-68
2023/07/22 03:05:28;;;;;;;;;;;;;;;21.40;55.80;100714.53;4968238;28;4104;-67
2023/07/22 03:07:54;;;;;;;;;;;;;;;21.37;55.93;100715.81;4999839;28;4090;-68
2023/07/22 03:10:21;;;;;;;;;;;;;;;21.39;55.99;100713.03;4964867;28;4095;-68
2023/07/22 03:12:47;;;;;;;;;;;;;;;21.40;55.86;100714.53;4954751;28;5322;-68
2023/07/22 03:15:13;;;;;;;;;;;;;;;21.39;56.04;100718.78;4963276;28;3971;-67
2023/07/22 03:17:43;;;;;;;;;;;;;;;21.38;56.03;100709.41;4966675;28;4166;-67
2023/07/22 03:20:19;;;;;;;;;;;;;;;21.37;55.84;100722.31;4972586;28;3974;-68
2023/07/22 03:22:45;;;;;;;;;;;;;;;21.37;55.88;100716.56;4966072;28;4185;-68
2023/07/22 03:25:12;;;;;;;;;;;;;;;21.37;55.81;100727.34;4963107;28;4155;-67
2023/07/22 03:27:39;;;;;;;;;;;;;;;21.37;55.87;100728.09;4977587;28;4212;-67
2023/07/22 03:30:07;;;;;;;;;;;;;;;21.33;55.73;100727.94;4968179;28;4024;-67
2023/07/22 03:32:34;;;;;;;;;;;;;;;21.34;55.79;100733.03;4972743;28;4069;-68
2023/07/22 03:35:01;;;;;;;;;;;;;;;21.36;55.66;100725.88;4971993;28;4066;-67
2023/07/22 03:37:28;;;;;;;;;;;;;;;21.36;55.60;100726.63;4967578;28;4213;-67
2023/07/22 03:39:54;;;;;;;;;;;;;;;21.36;55.69;100740.28;4966734;28;4299;-67
2023/07/22 03:42:21;;;;;;;;;;;;;;;21.37;55.58;100738.88;4967537;28;4219;-67
2023/07/22 03:44:47;;;;;;;;;;;;;;;21.36;55.83;100743.16;4965208;28;4018;-67
2023/07/22 03:47:14;;;;;;;;;;;;;;;21.36;55.73;100746.78;4967638;28;4019;-68
2023/07/22 03:49:40;;;;;;;;;;;;;;;21.34;55.51;100738.06;4962922;28;4379;-67
2023/07/22 03:52:07;;;;;;;;;;;;;;;21.33;55.50;100740.19;4967279;28;4160;-67
2023/07/22 03:54:33;;;;;;;;;;;;;;;21.32;55.53;100747.34;4967332;28;4049;-68
2023/07/22 03:56:59;;;;;;;;;;;;;;;21.31;55.50;100743.00;4971096;28;4142;-67
2023/07/22 03:59:28;;;;;;;;;;;;;;;21.34;55.41;100749.56;4972593;28;4159;-67
2023/07/22 04:01:54;;;;;;;;;;;;;;;21.33;55.55;100745.22;4968051;28;4216;-67
2023/07/22 04:04:21;;;;;;;;;;;;;;;21.32;55.50;100750.22;4974825;28;4203;-67
2023/07/22 04:06:47;;;;;;;;;;;;;;;21.31;55.57;100745.88;4969443;28;4306;-68
2023/07/22 04:09:14;;;;;;;;;;;;;;;21.29;55.61;100745.78;4969337;28;4041;-68
2023/07/22 04:11:40;;;;;;;;;;;;;;;21.29;55.49;100751.53;4984361;28;4138;-67
2023/07/22 04:14:06;;;;;;;;;;;;;;;21.30;55.28;100747.28;4969034;28;5049;-68
2023/07/22 04:16:33;;;;;;;;;;;;;;;21.30;55.35;100753.03;4975785;28;4152;-68
2023/07/22 04:19:01;;;;;;;;;;;;;;;21.28;55.32;100755.84;4971180;28;4198;-67
2023/07/22 04:21:27;;;;;;;;;;;;;;;21.31;55.48;100748.75;4970673;28;4155;-67
2023/07/22 04:23:54;;;;;;;;;;;;;;;21.31;55.21;100750.91;4975472;28;4112;-67
2023/07/22 04:26:20;;;;;;;;;;;;;;;21.32;55.38;100744.47;4977216;28;4139;-67
2023/07/22 04:28:47;;;;;;;;;;;;;;;21.32;55.30;100755.25;4970199;28;4205;-67
2023/07/22 04:31:13;;;;;;;;;;;;;;;21.31;55.21;100754.50;4970920;28;3923;-67
2023/07/22 04:33:41;;;;;;;;;;;;;;;21.30;55.09;100747.28;4972147;28;4144;-67
2023/07/22 04:36:08;;;;;;;;;;;;;;;21.32;55.21;100755.97;4979890;28;4149;-67
2023/07/22 04:38:34;;;;;;;;;;;;;;;21.31;55.20;100760.28;4967286;28;3935;-67
2023/07/22 04:41:03;;;;;;;;;;;;;;;21.31;55.50;100763.16;4971057;28;4038;-68
2023/07/22 04:43:29;;;;;;;;;;;;;;;21.33;55.11;100759.63;4969109;28;4118;-67
2023/07/22 04:45:56;;;;;;;;;;;;;;;21.32;55.38;100764.63;4971811;28;4177;-67
2023/07/22 04:48:23;;;;;;;;;;;;;;;21.34;55.27;100758.94;4976967;28;4171;-67
2023/07/22 04:50:49;;;;;;;;;;;;;;;21.34;55.39;100758.94;4973685;28;4179;-68
2023/07/22 04:53:16;;;;;;;;;;;;;;;21.33;55.23;100774.75;4971006;28;4015;-68
2023/07/22 04:55:43;;;;;;;;;;;;;;;21.33;55.33;100769.00;4968678;28;3966;-67
2023/07/22 04:58:10;;;;;;;;;;;;;;;21.33;55.21;100769.00;4972935;28;4081;-67
2023/07/22 05:00:37;;;;;;;;;;;;;;;21.32;55.50;100767.50;4970798;28;4038;-67
2023/07/22 05:03:03;;;;;;;;;;;;;;;21.31;55.22;100774.69;4968840;28;4138;-67
2023/07/22 05:05:30;;;;;;;;;;;;;;;21.31;55.53;100777.56;4965468;28;4259;-67
2023/07/22 05:07:56;;;;;;;;;;;;;;;21.32;55.55;100781.91;4969555;28;4072;-67
2023/07/22 05:10:23;;;;;;;;;;;;;;;21.32;55.33;100784.03;4971258;28;4166;-67
2023/07/22 05:12:49;;;;;;;;;;;;;;;21.32;55.18;100779.03;4971704;28;4139;-68
2023/07/22 05:15:16;;;;;;;;;;;;;;;21.29;55.47;100789.00;4967233;28;4134;-67
2023/07/22 05:17:42;;;;;;;;;;;;;;;21.29;55.72;100794.75;4969152;28;4054;-67
2023/07/22 05:20:09;;;;;;;;;;;;;;;21.28;55.81;100793.28;4968756;28;4267;-66
2023/07/22 05:22:37;;;;;;;;;;;;;;;21.31;55.50;100797.72;4971099;28;4198;-66
2023/07/22 05:25:04;;;;;;;;;;;;;;;21.33;55.58;100794.91;4969076;28;4058;-66
2023/07/22 05:27:30;;;;;;;;;;;;;;;21.34;55.70;100796.38;4971258;28;4446;-66
2023/07/22 05:29:57;;;;;;;;;;;;;;;21.34;55.62;100793.50;4974039;28;4143;-66
2023/07/22 05:32:23;;;;;;;;;;;;;;;21.36;55.62;100798.63;4964780;28;4129;-66
2023/07/22 05:35:00;;;;;;;;;;;;;;;21.34;55.46;100793.50;4965101;28;4380;-66
2023/07/22 05:37:26;;;;;;;;;;;;;;;21.36;55.70;100795.75;4968247;28;4282;-66
2023/07/22 05:39:52;;;;;;;;;;;;;;;21.36;55.78;100806.53;4964975;28;4102;-67
2023/07/22 05:42:19;;;;;;;;;;;;;;;21.34;55.41;100805.03;4966751;28;4210;-66
2023/07/22 05:44:45;;;;;;;;;;;;;;;21.34;55.48;100807.91;4968789;28;4111;-67
2023/07/22 05:47:12;;;;;;;;;;;;;;;21.36;55.68;100806.53;4970278;28;4062;-67
2023/07/22 05:49:38;;;;;;;;;;;;;;;21.37;55.48;100802.25;4968428;28;4096;-66
2023/07/22 05:52:04;;;;;;;;;;;;;;;21.36;55.53;100812.28;4972059;28;4039;-66
2023/07/22 05:54:31;;;;;;;;;;;;;;;21.34;55.48;100805.03;4970488;28;4451;-66
2023/07/22 05:56:57;;;;;;;;;;;;;;;21.33;55.77;100820.84;4964169;28;4180;-66
2023/07/22 05:59:24;;;;;;;;;;;;;;;21.33;55.55;100826.59;4962970;28;4181;-66
2023/07/22 06:01:50;;;;;;;;;;;;;;;21.34;55.68;100819.44;4965212;28;4053;-66
2023/07/22 06:04:17;;;;;;;;;;;;;;;21.36;55.45;100826.69;4969317;28;4178;-67
2023/07/22 06:06:43;;;;;;;;;;;;;;;21.34;55.66;100813.66;4969131;28;4221;-66
2023/07/22 06:09:10;;;;;;;;;;;;;;;21.36;55.55;100827.44;4971655;28;4270;-66
2023/07/22 06:11:36;;;;;;;;;;;;;;;21.36;55.74;100823.81;4962777;28;4191;-66
2023/07/22 06:14:03;;;;;;;;;;;;;;;21.33;55.53;100832.38;4966282;28;4052;-66
2023/07/22 06:16:29;;;;;;;;;;;;;;;21.34;55.77;100825.19;4964168;28;4161;-66
2023/07/22 06:18:56;;;;;;;;;;;;;;;21.34;55.48;100828.06;4970439;28;3939;-66
2023/07/22 06:21:22;;;;;;;;;;;;;;;21.36;55.31;100836.06;4969037;28;4153;-66
2023/07/22 06:23:48;;;;;;;;;;;;;;;21.36;55.73;100836.06;4965406;28;4036;-66
2023/07/22 06:26:15;;;;;;;;;;;;;;;21.36;55.46;100835.34;4966399;28;4171;-66
2023/07/22 06:28:42;;;;;;;;;;;;;;;21.36;55.45;100841.09;4963953;28;3897;-66
2023/07/22 06:31:08;;;;;;;;;;;;;;;21.36;55.42;100841.84;4969598;28;4175;-67
2023/07/22 06:33:36;;;;;;;;;;;;;;;21.34;55.61;100845.34;4967421;28;4389;-66
2023/07/22 06:36:02;;;;;;;;;;;;;;;21.34;55.29;100839.59;4967911;28;4281;-66
2023/07/22 06:38:28;;;;;;;;;;;;;;;21.34;55.63;100844.63;4964233;28;4047;-66
2023/07/22 06:40:55;;;;;;;;;;;;;;;21.33;55.39;100843.88;4970568;28;4108;-66
2023/07/22 06:43:21;;;;;;;;;;;;;;;21.33;55.39;100849.66;4970550;28;4133;-67
2023/07/22 06:45:48;;;;;;;;;;;;;;;21.34;55.39;100845.34;4961580;28;4062;-66
2023/07/22 06:48:14;;;;;;;;;;;;;;;21.34;55.25;100845.34;4972946;28;4141;-67
2023/07/22 06:50:46;;;;;;;;;;;;;;;21.36;55.50;100849.72;4970614;28;4189;-66
2023/07/22 06:53:14;;;;;;;;;;;;;;;21.37;55.35;100848.31;4964883;28;4196;-66
2023/07/22 06:55:51;;;;;;;;;;;;;;;21.36;55.55;100853.34;4968477;28;4201;-66
2023/07/22 06:58:18;;;;;;;;;;;;;;;21.34;55.35;100848.22;4967851;28;4061;-66
2023/07/22 07:00:44;;;;;;;;;;;;;;;21.34;55.32;100851.13;4968365;28;4043;-66
2023/07/22 07:03:11;;;;;;;;;;;;;;;21.33;55.51;100849.66;4962936;28;4197;-66
2023/07/22 07:05:40;;;;;;;;;;;;;;;21.34;55.50;100851.13;4960261;28;4073;-66
2023/07/22 07:08:07;;;;;;;;;;;;;;;21.34;55.35;100851.13;4959992;28;4040;-67
2023/07/22 07:10:37;;;;;;;;;;;;;;;21.34;55.38;100856.88;4960146;28;4178;-66
2023/07/22 07:13:03;;;;;;;;;;;;;;;21.34;55.12;100848.22;4967203;28;4042;-66
2023/07/22 07:15:30;;;;;;;;;;;;;;;21.34;55.15;100856.88;4969273;28;4161;-66
2023/07/22 07:17:56;;;;;;;;;;;;;;;21.34;55.40;100861.91;4965182;28;4179;-66
2023/07/22 07:20:23;;;;;;;;;;;;;;;21.32;55.27;100859.66;4969239;28;4200;-66
2023/07/22 07:22:49;;;;;;;;;;;;;;;21.32;55.21;100859.66;4966197;28;4334;-66
2023/07/22 07:25:16;;;;;;;;;;;;;;;21.34;55.06;100861.91;4965047;28;3991;-66
2023/07/22 07:27:42;;;;;;;;;;;;;;;21.33;55.04;100866.94;4964114;28;4218;-67
2023/07/22 07:30:09;;;;;;;;;;;;;;;21.34;55.06;100868.41;4967640;28;4098;-66
2023/07/22 07:32:36;;;;;;;;;;;;;;;21.34;55.02;100868.41;4965905;28;4135;-66
2023/07/22 07:35:04;;;;;;;;;;;;;;;21.36;54.96;100875.66;4968671;28;4182;-66
2023/07/22 07:37:31;;;;;;;;;;;;;;;21.36;55.19;100869.91;4968105;28;4158;-66
2023/07/22 07:39:59;;;;;;;;;;;;;;;21.36;55.20;100878.53;4968167;28;4198;-66
2023/07/22 07:42:28;;;;;;;;;;;;;;;21.36;54.87;100875.66;4964968;28;4177;-66
2023/07/22 07:44:55;;;;;;;;;;;;;;;21.34;54.89;100873.44;4999969;28;4213;-66
2023/07/22 07:47:21;;;;;;;;;;;;;;;21.36;54.90;100881.41;4971282;28;4038;-66
2023/07/22 07:49:48;;;;;;;;;;;;;;;21.34;54.75;100885.69;4969636;28;4100;-67
2023/07/22 07:52:15;;;;;;;;;;;;;;;21.36;54.91;100881.41;4966822;28;4276;-67
2023/07/22 07:54:41;;;;;;;;;;;;;;;21.34;54.87;100885.69;4969493;28;4192;-67
2023/07/22 07:57:07;;;;;;;;;;;;;;;21.37;54.64;100888.66;4971724;28;4136;-67
2023/07/22 07:59:34;;;;;;;;;;;;;;;21.37;54.78;100877.13;4968635;28;4092;-67
2023/07/22 08:02:08;;;;;;;;;;;;;;;21.38;54.52;100884.38;4967048;28;4343;-67
2023/07/22 08:04:35;;;;;;;;;;;;;;;21.37;54.68;100882.88;4971503;28;3990;-67
2023/07/22 08:07:04;;;;;;;;;;;;;;;21.31;54.66;100887.00;4974929;28;4236;-65
2023/07/22 08:09:30;;;;;;;;;;;;;;;20.44;54.43;100887.44;4979058;28;4152;-65
2023/07/22 08:11:57;;;;;;;;;;;;;;;20.31;54.70;100899.75;4967020;28;4139;-66
2023/07/22 08:14:23;;;;;;;;;;;;;;;20.48;54.42;100893.38;4967866;28;4107;-65
2023/07/22 08:16:50;;;;;;;;;;;;;;;20.58;54.20;100892.41;4965850;28;4200;-69
2023/07/22 08:19:16;;;;;;;;;;;;;;;20.64;52.67;100887.66;4965690;28;4190;-67
2023/07/22 08:21:43;;;;;;;;;;;;;;;20.54;52.81;100883.53;4964759;28;4142;-70
2023/07/22 08:24:09;;;;;;;;;;;;;;;20.22;53.11;100889.25;4966104;28;4181;-66
2023/07/22 08:26:36;;;;;;;;;;;;;;;20.36;53.67;100889.19;4961090;28;4343;-67
2023/07/22 08:29:02;;;;;;;;;;;;;;;20.40;53.77;100884.38;4963501;28;4156;-72
2023/07/22 08:31:28;;;;;;;;;;;;;;;20.53;53.00;100893.59;4965486;28;4678;-73
2023/07/22 08:33:55;;;;;;;;;;;;;;;20.45;53.20;100893.94;4963680;28;4173;-68
2023/07/22 08:36:21;;;;;;;;;;;;;;;20.65;52.92;100892.00;4964798;28;4192;-70
2023/07/22 08:38:48;;;;;;;;;;;;;;;20.78;52.47;100901.97;4963163;28;4249;-68
2023/07/22 08:41:15;;;;;;;;;;;;;;;20.75;53.22;100903.25;4961655;28;4053;-67
2023/07/22 08:43:41;;;;;;;;;;;;;;;20.74;53.12;100906.78;4970955;28;4183;-70
2023/07/22 08:46:08;;;;;;;;;;;;;;;20.89;52.98;100915.41;4973845;28;4210;-74
2023/07/22 08:48:34;;;;;;;;;;;;;;;21.11;52.60;100909.16;4967097;28;5143;-72
2023/07/22 08:51:06;;;;;;;;;;;;;;;21.09;52.14;100906.19;4972169;28;4027;-77
2023/07/22 08:53:33;;;;;;;;;;;;;;;20.91;52.24;100912.63;4968307;28;4217;-80
2023/07/22 08:56:00;;;;;;;;;;;;;;;20.86;52.51;100913.81;4970233;28;3981;-80
2023/07/22 08:58:26;;;;;;;;;;;;;;;20.38;53.17;100921.66;4980545;28;4172;-79
2023/07/22 09:00:53;;;;;;;;;;;;;;;20.26;53.44;100913.19;4968342;28;4096;-81
2023/07/22 09:03:19;;;;;;;;;;;;;;;20.48;53.23;100916.41;4986376;28;4745;-81
2023/07/22 09:05:46;;;;;;;;;;;;;;;20.60;53.09;100910.50;4967175;28;4218;-81
2023/07/22 09:08:12;;;;;;;;;;;;;;;20.76;52.71;100909.75;4966903;28;4071;-81
2023/07/22 09:10:39;;;;;;;;;;;;;;;20.39;51.98;100914.53;4978104;28;4086;-81
2023/07/22 09:13:05;;;;;;;;;;;;;;;20.46;52.42;100913.44;4963704;28;4296;-83
2023/07/22 09:15:34;;;;;;;;;;;;;;;20.45;52.27;100916.94;4984618;28;4076;-79
2023/07/22 09:18:00;;;;;;;;;;;;;;;20.68;52.09;100915.88;4967805;28;4125;-81
2023/07/22 09:20:28;;;;;;;;;;;;;;;20.86;51.45;100904.44;4970404;28;4004;-80
2023/07/22 09:22:55;;;;;;;;;;;;;;;20.74;51.57;100912.53;4976635;28;4194;-80
2023/07/22 09:25:39;;;;;;;;;;;;;;;20.73;51.50;100906.06;4964042;28;4387;-81
2023/07/22 09:28:05;;;;;;;;;;;;;;;20.61;51.68;100905.47;4965375;28;4281;-81
2023/07/22 09:30:35;;;;;;;;;;;;;;;20.74;51.88;100901.75;4968657;28;4175;-81
2023/07/22 09:33:02;;;;;;;;;;;;;;;20.95;51.39;100897.66;4973496;28;4150;-80
2023/07/22 09:35:29;;;;;;;;;;;;;;;20.91;50.60;100909.00;4977950;28;4162;-80
2023/07/22 09:37:56;;;;;;;;;;;;;;;20.72;50.82;100916.06;4981196;28;4259;-79
2023/07/22 09:40:23;;;;;;;;;;;;;;;20.72;51.03;100910.31;4968338;28;4103;-83
2023/07/22 09:42:50;;;;;;;;;;;;;;;20.77;50.86;100911.97;4971292;28;4095;-85
2023/07/22 09:45:18;;;;;;;;;;;;;;;20.61;50.64;100905.47;4976601;28;4130;-82
2023/07/22 09:47:47;;;;;;;;;;;;;;;20.53;50.42;100913.72;4968703;28;4095;-82
2023/07/22 09:50:14;;;;;;;;;;;;;;;20.77;50.80;100911.97;4968073;28;4059;-83
2023/07/22 09:52:42;;;;;;;;;;;;;;;20.96;50.58;100907.03;4966752;28;4317;-82
2023/07/22 09:55:08;;;;;;;;;;;;;;;20.93;50.19;100915.56;4964822;28;4457;-84
2023/07/22 09:57:35;;;;;;;;;;;;;;;20.91;50.32;100911.88;4969477;28;4015;-82
2023/07/22 10:00:01;;;;;;;;;;;;;;;20.99;50.06;100911.50;4972884;28;4088;-83
2023/07/22 10:02:37;;;;;;;;;;;;;;;21.18;49.77;100910.91;4968057;28;4320;-83
2023/07/22 10:05:04;;;;;;;;;;;;;;;21.23;49.59;100914.69;4986470;28;4146;-84
2023/07/22 10:07:32;;;;;;;;;;;;;;;21.22;49.10;100919.00;4966773;28;4143;-80
2023/07/22 10:09:59;;;;;;;;;;;;;;;20.86;49.09;100919.56;4982921;28;4361;-83
2023/07/22 10:12:25;;;;;;;;;;;;;;;20.98;49.71;100915.75;4969870;28;4147;-83
2023/07/22 10:14:52;;;;;;;;;;;;;;;21.06;48.63;100907.50;4983676;28;4088;-83
2023/07/22 10:17:19;;;;;;;;;;;;;;;21.11;48.96;100909.16;4971057;28;4053;-84
2023/07/22 10:19:45;;;;;;;;;;;;;;;21.20;48.96;100910.25;4960712;28;4241;-83
2023/07/22 10:22:12;;;;;;;;;;;;;;;21.21;48.63;100915.38;4968326;28;4213;-83
2023/07/22 10:24:39;;;;;;;;;;;;;;;21.22;48.56;100916.84;4978979;28;4084;-84
2023/07/22 10:27:05;;;;;;;;;;;;;;;21.08;48.78;100908.31;4967616;28;4140;-82
2023/07/22 10:29:32;;;;;;;;;;;;;;;20.95;49.20;100920.69;4980286;28;4066;-85
2023/07/22 10:31:59;;;;;;;;;;;;;;;21.12;48.48;100913.53;4966852;28;4135;-75
2023/07/22 10:34:25;;;;;;;;;;;;;;;21.27;48.22;100927.16;4973104;28;4360;-77
2023/07/22 10:36:52;;;;;;;;;;;;;;;21.56;48.38;100919.75;4962528;28;4101;-79
2023/07/22 10:39:26;;;;;;;;;;;;;;;21.71;47.52;100916.06;4976200;28;4066;-79
2023/07/22 10:42:04;;;;;;;;;;;;;;;21.71;47.29;100921.09;4959953;28;4063;-77
2023/07/22 10:44:32;;;;;;;;;;;;;;;21.75;47.17;100909.72;4971736;28;4056;-79
2023/07/22 10:46:59;;;;;;;;;;;;;;;21.95;46.71;100912.72;4971587;28;4069;-77
2023/07/22 10:49:27;;;;;;;;;;;;;;;21.79;46.73;100909.19;4965712;28;4160;-76
2023/07/22 10:51:53;;;;;;;;;;;;;;;21.39;46.92;100908.91;4970103;28;3937;-74
2023/07/22 10:54:36;;;;;;;;;;;;;;;21.43;46.79;100914.88;4969991;28;4189;-74
2023/07/22 10:57:04;;;;;;;;;;;;;;;21.21;47.18;100911.72;4958695;28;4181;-73
2023/07/22 10:59:32;;;;;;;;;;;;;;;21.50;47.42;100911.59;4968447;28;4180;-73
2023/07/22 11:01:58;;;;;;;;;;;;;;;21.68;46.95;100911.63;4964771;28;4353;-72
2023/07/22 11:04:31;;;;;;;;;;;;;;;21.80;47.45;100910.66;4966495;28;4041;-73
2023/07/22 11:07:17;;;;;;;;;;;;;;;21.71;47.94;100903.78;4966741;28;4137;-76
2023/07/22 11:09:44;;;;;;;;;;;;;;;21.87;47.93;100909.50;4970480;28;4059;-73
2023/07/22 11:12:17;;;;;;;;;;;;;;;21.99;48.28;100906.34;4970981;28;5344;-75
2023/07/22 11:14:50;;;;;;;;;;;;;;;22.04;48.29;100905.16;4966937;28;4128;-74
2023/07/22 11:17:17;;;;;;;;;;;;;;;21.95;48.45;100904.06;4968292;28;4328;-74
2023/07/22 11:19:43;;;;;;;;;;;;;;;21.89;48.83;100901.66;4969879;28;4023;-73
2023/07/22 11:22:10;;;;;;;;;;;;;;;22.10;48.98;100903.22;4969223;28;4137;-72
2023/07/22 11:24:37;;;;;;;;;;;;;;;22.15;48.60;100907.78;4964530;28;4152;-76
2023/07/22 11:27:04;;;;;;;;;;;;;;;22.23;48.54;100909.50;4967421;28;5168;-75
2023/07/22 11:29:31;;;;;;;;;;;;;;;22.22;48.43;100908.78;4966453;28;4154;-74
2023/07/22 11:31:57;;;;;;;;;;;;;;;22.33;48.52;100901.25;4962810;28;4167;-75
2023/07/22 11:34:24;;;;;;;;;;;;;;;22.29;48.93;100898.97;4969570;28;4118;-74
2023/07/22 11:36:51;;;;;;;;;;;;;;;22.15;49.47;100909.88;4976748;28;4272;-74
2023/07/22 11:39:18;;;;;;;;;;;;;;;22.20;49.46;100899.28;4967400;28;4022;-77
2023/07/22 11:41:44;;;;;;;;;;;;;;;22.57;48.97;100895.69;4967834;28;4079;-76
2023/07/22 11:44:14;;;;;;;;;;;;;;;22.57;48.34;100902.19;4975940;28;4001;-75
2023/07/22 11:46:46;;;;;;;;;;;;;;;22.50;48.76;100894.72;4971075;28;4072;-76
2023/07/22 11:49:12;;;;;;;;;;;;;;;22.38;49.13;100900.03;4978056;28;4504;-76
2023/07/22 11:51:41;;;;;;;;;;;;;;;22.25;49.15;100907.44;4969756;28;4069;-77
2023/07/22 11:54:08;;;;;;;;;;;;;;;22.32;49.18;100908.44;4963838;28;4027;-73
2023/07/22 11:56:34;;;;;;;;;;;;;;;22.13;49.48;100899.03;4962178;28;4456;-78
2023/07/22 11:59:01;;;;;;;;;;;;;;;22.34;49.31;100891.19;4969443;28;4048;-76
2023/07/22 12:01:31;;;;;;;;;;;;;;;22.27;49.57;100898.13;4971745;28;4209;-78
2023/07/22 12:03:58;;;;;;;;;;;;;;;22.31;49.36;100893.28;4969703;28;4124;-78
2023/07/22 12:06:24;;;;;;;;;;;;;;;22.50;49.33;100897.59;4967159;28;4160;-77
2023/07/22 12:08:51;;;;;;;;;;;;;;;22.76;49.12;100900.72;4968218;28;3987;-76
2023/07/22 12:11:23;;;;;;;;;;;;;;;22.84;48.63;100893.75;4968130;28;4117;-78
2023/07/22 12:14:07;;;;;;;;;;;;;;;22.62;49.32;100890.81;4951159;28;5213;-77
2023/07/22 12:16:34;;;;;;;;;;;;;;;22.73;49.08;100907.09;4970405;28;4090;-77
2023/07/22 12:19:00;;;;;;;;;;;;;;;22.68;49.34;100888.88;4970424;28;4113;-76
2023/07/22 12:21:27;;;;;;;;;;;;;;;22.67;49.54;100881.63;4973039;28;4207;-75
2023/07/22 12:23:54;;;;;;;;;;;;;;;22.69;49.13;100889.63;4986818;28;4020;-75
2023/07/22 12:26:20;;;;;;;;;;;;;;;22.71;49.25;100886.81;4970455;28;4032;-75
2023/07/22 12:28:47;;;;;;;;;;;;;;;22.52;49.30;100891.91;4971573;28;4055;-73
2023/07/22 12:31:13;;;;;;;;;;;;;;;22.52;49.59;100883.25;4973411;28;4066;-73
2023/07/22 12:33:40;;;;;;;;;;;;;;;22.41;49.81;100877.75;4971912;28;4054;-74
2023/07/22 12:36:06;;;;;;;;;;;;;;;22.58;50.46;100886.34;4968483;28;4227;-75
2023/07/22 12:38:32;;;;;;;;;;;;;;;22.81;49.99;100878.50;4969535;28;4500;-74
2023/07/22 12:41:00;;;;;;;;;;;;;;;22.86;49.20;100879.41;4969406;28;4144;-77
2023/07/22 12:43:26;;;;;;;;;;;;;;;22.85;49.06;100877.94;4969923;28;4327;-74
2023/07/22 12:45:52;;;;;;;;;;;;;;;22.86;49.05;100874.38;4964385;28;4257;-76
2023/07/22 12:48:19;;;;;;;;;;;;;;;22.72;49.14;100888.28;4970950;28;4468;-78